Brooks AFB, Texas
Current Conditions -  °F | °C
As of 10:53 PM on Friday 24 Oct 2014 (Local Time) from KSSF Reporting Station
Clear Clear  
Wind Chill: 71°   Ceiling: Unl
Heat Index: 71°   Visibility: 10mi
Dew Point: 58°   Wind: 5mph
Humidity: 63%   Direction: 120°ESE
Pressure: 30.13"   Gusts: NA
Location:  29.3423°N, 98.4394°W
Report Text: KSSF 250353Z AUTO 12004KT 10SM CLR 22/14 A3013 RMK AO2 SLP193 T02170144
Loading
Personal Weather Stations






























Interactive Weather Map
Tropical Storm Tracking
New forecast layout! Learn more

10-Day Weather Forecast

Advertisements
Track Severe Weather on mobile